sensor_id;sensor_type;location;lat;lon;timestamp;pressure;altitude;pressure_sealevel;temperature;humidity
49030;BME280;43337;52.070;4.508;2023-07-28T00:00:39;100622.28;;;17.92;100.00
49030;BME280;43337;52.070;4.508;2023-07-28T00:03:04;100608.44;;;17.87;100.00
49030;BME280;43337;52.070;4.508;2023-07-28T00:05:30;100615.22;;;17.91;100.00
49030;BME280;43337;52.070;4.508;2023-07-28T00:07:55;100613.31;;;17.93;100.00
49030;BME280;43337;52.070;4.508;2023-07-28T00:10:20;100603.13;;;17.87;100.00
49030;BME280;43337;52.070;4.508;2023-07-28T00:12:46;100598.63;;;17.87;100.00
49030;BME280;43337;52.070;4.508;2023-07-28T00:15:11;100579.63;;;17.80;100.00
49030;BME280;43337;52.070;4.508;2023-07-28T00:17:37;100611.72;;;17.90;100.00
49030;BME280;43337;52.070;4.508;2023-07-28T00:20:02;100580.47;;;17.81;100.00
49030;BME280;43337;52.070;4.508;2023-07-28T00:22:28;100606.91;;;17.95;100.00
49030;BME280;43337;52.070;4.508;2023-07-28T00:24:53;100606.03;;;17.95;100.00
49030;BME280;43337;52.070;4.508;2023-07-28T00:27:18;100584.13;;;17.80;100.00
49030;BME280;43337;52.070;4.508;2023-07-28T00:29:44;100604.47;;;17.92;100.00
49030;BME280;43337;52.070;4.508;2023-07-28T00:32:09;100609.44;;;17.97;100.00
49030;BME280;43337;52.070;4.508;2023-07-28T00:34:35;100599.38;;;17.89;100.00
49030;BME280;43337;52.070;4.508;2023-07-28T00:37:00;100608.47;;;17.98;100.00
49030;BME280;43337;52.070;4.508;2023-07-28T00:39:26;100608.69;;;17.95;100.00
49030;BME280;43337;52.070;4.508;2023-07-28T00:41:52;100571.22;;;17.74;100.00
49030;BME280;43337;52.070;4.508;2023-07-28T00:44:17;100583.16;;;17.81;100.00
49030;BME280;43337;52.070;4.508;2023-07-28T00:46:45;100575.63;;;17.75;100.00
49030;BME280;43337;52.070;4.508;2023-07-28T00:49:10;100612.84;;;17.99;100.00
49030;BME280;43337;52.070;4.508;2023-07-28T00:51:37;100600.13;;;17.91;100.00
49030;BME280;43337;52.070;4.508;2023-07-28T00:54:03;100609.22;;;18.00;100.00
49030;BME280;43337;52.070;4.508;2023-07-28T00:56:30;100615.38;;;18.00;100.00
49030;BME280;43337;52.070;4.508;2023-07-28T00:58:56;100606.56;;;18.00;100.00
49030;BME280;43337;52.070;4.508;2023-07-28T01:01:22;100585.44;;;17.86;100.00
49030;BME280;43337;52.070;4.508;2023-07-28T01:03:49;100553.66;;;17.71;100.00
49030;BME280;43337;52.070;4.508;2023-07-28T01:06:24;100616.09;;;18.02;100.00
49030;BME280;43337;52.070;4.508;2023-07-28T01:08:59;100587.13;;;17.87;100.00
49030;BME280;43337;52.070;4.508;2023-07-28T01:11:28;100604.88;;;17.99;100.00
49030;BME280;43337;52.070;4.508;2023-07-28T01:13:54;100573.09;;;17.85;100.00
49030;BME280;43337;52.070;4.508;2023-07-28T01:16:19;100620.47;;;18.03;100.00
49030;BME280;43337;52.070;4.508;2023-07-28T01:18:45;100610.06;;;18.00;100.00
49030;BME280;43337;52.070;4.508;2023-07-28T01:21:17;100590.31;;;17.92;100.00
49030;BME280;43337;52.070;4.508;2023-07-28T01:26:38;100604.72;;;18.00;100.00
49030;BME280;43337;52.070;4.508;2023-07-28T01:29:05;100606.41;;;18.01;100.00
49030;BME280;43337;52.070;4.508;2023-07-28T01:31:31;100602.56;;;18.05;100.00
49030;BME280;43337;52.070;4.508;2023-07-28T01:33:56;100598.56;;;18.00;100.00
49030;BME280;43337;52.070;4.508;2023-07-28T01:36:22;100580.50;;;17.92;100.00
49030;BME280;43337;52.070;4.508;2023-07-28T01:38:47;100596.75;;;18.00;100.00
49030;BME280;43337;52.070;4.508;2023-07-28T01:41:13;100603.66;;;18.03;100.00
49030;BME280;43337;52.070;4.508;2023-07-28T01:43:39;100611.28;;;18.08;100.00
49030;BME280;43337;52.070;4.508;2023-07-28T01:46:04;100588.50;;;17.92;100.00
49030;BME280;43337;52.070;4.508;2023-07-28T01:48:30;100616.63;;;18.08;100.00
49030;BME280;43337;52.070;4.508;2023-07-28T01:50:55;100615.16;;;18.03;100.00
49030;BME280;43337;52.070;4.508;2023-07-28T01:53:21;100605.56;;;18.01;100.00
49030;BME280;43337;52.070;4.508;2023-07-28T01:55:46;100613.81;;;18.09;100.00
49030;BME280;43337;52.070;4.508;2023-07-28T01:58:13;100607.50;;;18.10;100.00
49030;BME280;43337;52.070;4.508;2023-07-28T02:00:39;100602.06;;;18.00;100.00
49030;BME280;43337;52.070;4.508;2023-07-28T02:03:05;100601.00;;;18.03;100.00
49030;BME280;43337;52.070;4.508;2023-07-28T02:05:30;100608.72;;;18.06;100.00
49030;BME280;43337;52.070;4.508;2023-07-28T02:07:56;100607.50;;;18.10;100.00
49030;BME280;43337;52.070;4.508;2023-07-28T02:10:23;100606.66;;;18.10;100.00
49030;BME280;43337;52.070;4.508;2023-07-28T02:12:49;100610.91;;;18.12;100.00
49030;BME280;43337;52.070;4.508;2023-07-28T02:15:15;100603.38;;;18.06;100.00
49030;BME280;43337;52.070;4.508;2023-07-28T02:17:40;100619.75;;;18.13;100.00
49030;BME280;43337;52.070;4.508;2023-07-28T02:20:06;100589.47;;;18.02;100.00
49030;BME280;43337;52.070;4.508;2023-07-28T02:22:34;100597.84;;;18.09;100.00
49030;BME280;43337;52.070;4.508;2023-07-28T02:25:00;100600.72;;;18.06;100.00
49030;BME280;43337;52.070;4.508;2023-07-28T02:27:28;100612.00;;;18.10;100.00
49030;BME280;43337;52.070;4.508;2023-07-28T02:29:54;100598.06;;;18.06;100.00
49030;BME280;43337;52.070;4.508;2023-07-28T02:32:19;100612.50;;;18.15;100.00
49030;BME280;43337;52.070;4.508;2023-07-28T02:34:45;100612.84;;;18.10;100.00
49030;BME280;43337;52.070;4.508;2023-07-28T02:37:10;100584.25;;;17.90;100.00
49030;BME280;43337;52.070;4.508;2023-07-28T02:39:36;100615.16;;;18.03;100.00
49030;BME280;43337;52.070;4.508;2023-07-28T02:45:23;100617.44;;;17.97;100.00
49030;BME280;43337;52.070;4.508;2023-07-28T02:47:49;100613.66;;;17.88;100.00
49030;BME280;43337;52.070;4.508;2023-07-28T02:50:15;100624.31;;;17.88;100.00
49030;BME280;43337;52.070;4.508;2023-07-28T02:52:40;100630.13;;;17.93;100.00
49030;BME280;43337;52.070;4.508;2023-07-28T02:55:06;100620.69;;;17.89;100.00
49030;BME280;43337;52.070;4.508;2023-07-28T02:57:32;100601.03;;;17.79;100.00
49030;BME280;43337;52.070;4.508;2023-07-28T02:59:58;100611.38;;;17.84;100.00
49030;BME280;43337;52.070;4.508;2023-07-28T03:02:23;100611.97;;;17.76;100.00
49030;BME280;43337;52.070;4.508;2023-07-28T03:04:49;100635.59;;;17.92;100.00
49030;BME280;43337;52.070;4.508;2023-07-28T03:07:14;100632.94;;;17.92;100.00
49030;BME280;43337;52.070;4.508;2023-07-28T03:09:40;100633.25;;;17.87;100.00
49030;BME280;43337;52.070;4.508;2023-07-28T03:12:06;100637.50;;;17.90;100.00
49030;BME280;43337;52.070;4.508;2023-07-28T03:14:32;100607.63;;;17.62;100.00
49030;BME280;43337;52.070;4.508;2023-07-28T03:16:57;100615.03;;;17.70;100.00
49030;BME280;43337;52.070;4.508;2023-07-28T03:19:22;100625.00;;;17.79;100.00
49030;BME280;43337;52.070;4.508;2023-07-28T03:21:48;100639.56;;;17.86;100.00
49030;BME280;43337;52.070;4.508;2023-07-28T03:24:13;100649.84;;;17.91;100.00
49030;BME280;43337;52.070;4.508;2023-07-28T03:26:39;100641.16;;;17.89;100.00
49030;BME280;43337;52.070;4.508;2023-07-28T03:29:04;100642.22;;;17.86;100.00
49030;BME280;43337;52.070;4.508;2023-07-28T03:31:29;100624.41;;;17.75;100.00
49030;BME280;43337;52.070;4.508;2023-07-28T03:33:55;100619.53;;;17.69;100.00
49030;BME280;43337;52.070;4.508;2023-07-28T03:36:20;100644.44;;;17.92;100.00
49030;BME280;43337;52.070;4.508;2023-07-28T03:38:46;100643.06;;;17.87;100.00
49030;BME280;43337;52.070;4.508;2023-07-28T03:41:12;100634.94;;;17.77;100.00
49030;BME280;43337;52.070;4.508;2023-07-28T03:43:38;100630.59;;;17.76;100.00
49030;BME280;43337;52.070;4.508;2023-07-28T03:46:03;100658.09;;;17.88;100.00
49030;BME280;43337;52.070;4.508;2023-07-28T03:48:29;100664.28;;;17.88;100.00
49030;BME280;43337;52.070;4.508;2023-07-28T03:50:54;100660.03;;;17.86;100.00
49030;BME280;43337;52.070;4.508;2023-07-28T03:53:20;100669.13;;;17.94;100.00
49030;BME280;43337;52.070;4.508;2023-07-28T03:55:45;100633.44;;;17.73;100.00
49030;BME280;43337;52.070;4.508;2023-07-28T03:58:10;100664.16;;;17.90;100.00
49030;BME280;43337;52.070;4.508;2023-07-28T04:00:35;100656.50;;;17.85;100.00
49030;BME280;43337;52.070;4.508;2023-07-28T04:03:01;100654.47;;;17.89;100.00
49030;BME280;43337;52.070;4.508;2023-07-28T04:05:26;100667.88;;;17.87;100.00
49030;BME280;43337;52.070;4.508;2023-07-28T04:07:51;100677.88;;;17.96;100.00
49030;BME280;43337;52.070;4.508;2023-07-28T04:10:17;100647.78;;;17.83;100.00
49030;BME280;43337;52.070;4.508;2023-07-28T04:12:42;100671.56;;;17.97;100.00
49030;BME280;43337;52.070;4.508;2023-07-28T04:15:08;100656.66;;;17.95;100.00
49030;BME280;43337;52.070;4.508;2023-07-28T04:17:33;100654.97;;;17.94;100.00
49030;BME280;43337;52.070;4.508;2023-07-28T04:19:59;100644.66;;;17.89;100.00
49030;BME280;43337;52.070;4.508;2023-07-28T04:22:24;100666.13;;;17.99;100.00
49030;BME280;43337;52.070;4.508;2023-07-28T04:24:50;100653.50;;;17.90;100.00
49030;BME280;43337;52.070;4.508;2023-07-28T04:27:15;100646.94;;;17.83;100.00
49030;BME280;43337;52.070;4.508;2023-07-28T04:29:41;100660.06;;;17.97;100.00
49030;BME280;43337;52.070;4.508;2023-07-28T04:32:06;100640.75;;;17.82;100.00
49030;BME280;43337;52.070;4.508;2023-07-28T04:34:35;100640.16;;;17.78;100.00
49030;BME280;43337;52.070;4.508;2023-07-28T04:37:01;100643.44;;;17.82;100.00
49030;BME280;43337;52.070;4.508;2023-07-28T04:39:26;100634.72;;;17.80;100.00
49030;BME280;43337;52.070;4.508;2023-07-28T04:41:52;100672.78;;;18.04;100.00
49030;BME280;43337;52.070;4.508;2023-07-28T04:44:18;100637.03;;;17.85;100.00
49030;BME280;43337;52.070;4.508;2023-07-28T04:46:44;100640.53;;;17.85;100.00
49030;BME280;43337;52.070;4.508;2023-07-28T04:49:13;100677.28;;;18.04;100.00
49030;BME280;43337;52.070;4.508;2023-07-28T04:51:38;100678.00;;;18.06;100.00
49030;BME280;43337;52.070;4.508;2023-07-28T04:54:03;100672.94;;;18.03;100.00
49030;BME280;43337;52.070;4.508;2023-07-28T04:56:28;100689.28;;;18.10;100.00
49030;BME280;43337;52.070;4.508;2023-07-28T04:58:54;100672.66;;;18.06;100.00
49030;BME280;43337;52.070;4.508;2023-07-28T05:01:19;100682.25;;;18.09;100.00
49030;BME280;43337;52.070;4.508;2023-07-28T05:03:44;100682.25;;;18.09;100.00
49030;BME280;43337;52.070;4.508;2023-07-28T05:06:13;100688.19;;;18.12;100.00
49030;BME280;43337;52.070;4.508;2023-07-28T05:08:38;100646.56;;;17.87;100.00
49030;BME280;43337;52.070;4.508;2023-07-28T05:11:03;100648.06;;;17.91;100.00
49030;BME280;43337;52.070;4.508;2023-07-28T05:13:29;100682.13;;;18.10;100.00
49030;BME280;43337;52.070;4.508;2023-07-28T05:15:54;100676.06;;;18.08;100.00
49030;BME280;43337;52.070;4.508;2023-07-28T05:18:19;100679.34;;;18.12;100.00
49030;BME280;43337;52.070;4.508;2023-07-28T05:20:45;100685.41;;;18.14;100.00
49030;BME280;43337;52.070;4.508;2023-07-28T05:23:10;100700.19;;;18.18;100.00
49030;BME280;43337;52.070;4.508;2023-07-28T05:25:35;100683.47;;;18.16;100.00
49030;BME280;43337;52.070;4.508;2023-07-28T05:28:01;100697.28;;;18.21;100.00
49030;BME280;43337;52.070;4.508;2023-07-28T05:30:26;100683.72;;;18.13;100.00
49030;BME280;43337;52.070;4.508;2023-07-28T05:32:54;100690.28;;;18.20;100.00
49030;BME280;43337;52.070;4.508;2023-07-28T05:35:19;100670.13;;;18.04;100.00
49030;BME280;43337;52.070;4.508;2023-07-28T05:37:45;100694.13;;;18.16;100.00
49030;BME280;43337;52.070;4.508;2023-07-28T05:40:12;100700.94;;;18.20;100.00
49030;BME280;43337;52.070;4.508;2023-07-28T05:42:37;100685.53;;;18.12;100.00
49030;BME280;43337;52.070;4.508;2023-07-28T05:45:03;100693.28;;;18.15;100.00
49030;BME280;43337;52.070;4.508;2023-07-28T05:47:28;100689.88;;;18.13;100.00
49030;BME280;43337;52.070;4.508;2023-07-28T05:53:03;100709.69;;;18.22;100.00
49030;BME280;43337;52.070;4.508;2023-07-28T05:55:29;100717.41;;;18.25;100.00
49030;BME280;43337;52.070;4.508;2023-07-28T05:57:55;100715.50;;;18.27;100.00
49030;BME280;43337;52.070;4.508;2023-07-28T06:00:20;100705.66;;;18.16;100.00
49030;BME280;43337;52.070;4.508;2023-07-28T06:02:45;100718.88;;;18.29;100.00
49030;BME280;43337;52.070;4.508;2023-07-28T06:05:11;100728.59;;;18.30;100.00
49030;BME280;43337;52.070;4.508;2023-07-28T06:07:36;100726.16;;;18.27;100.00
49030;BME280;43337;52.070;4.508;2023-07-28T06:10:02;100728.06;;;18.25;100.00
49030;BME280;43337;52.070;4.508;2023-07-28T06:12:27;100693.13;;;18.05;100.00
49030;BME280;43337;52.070;4.508;2023-07-28T06:14:53;100706.25;;;18.20;100.00
49030;BME280;43337;52.070;4.508;2023-07-28T06:20:43;100727.63;;;18.31;100.00
49030;BME280;43337;52.070;4.508;2023-07-28T06:23:08;100730.28;;;18.31;100.00
49030;BME280;43337;52.070;4.508;2023-07-28T06:25:34;100739.59;;;18.37;100.00
49030;BME280;43337;52.070;4.508;2023-07-28T06:27:59;100736.09;;;18.36;100.00
49030;BME280;43337;52.070;4.508;2023-07-28T06:30:27;100746.66;;;18.38;100.00
49030;BME280;43337;52.070;4.508;2023-07-28T06:32:53;100756.22;;;18.40;100.00
49030;BME280;43337;52.070;4.508;2023-07-28T06:35:18;100727.97;;;18.26;100.00
49030;BME280;43337;52.070;4.508;2023-07-28T06:37:43;100739.00;;;18.33;100.00
49030;BME280;43337;52.070;4.508;2023-07-28T06:40:09;100743.88;;;18.39;100.00
49030;BME280;43337;52.070;4.508;2023-07-28T06:42:36;100762.69;;;18.49;100.00
49030;BME280;43337;52.070;4.508;2023-07-28T06:45:05;100757.84;;;18.54;100.00
49030;BME280;43337;52.070;4.508;2023-07-28T06:47:31;100763.56;;;18.61;100.00
49030;BME280;43337;52.070;4.508;2023-07-28T06:49:56;100773.00;;;18.65;100.00
49030;BME280;43337;52.070;4.508;2023-07-28T06:52:21;100751.53;;;18.55;100.00
49030;BME280;43337;52.070;4.508;2023-07-28T06:54:47;100740.25;;;18.51;100.00
49030;BME280;43337;52.070;4.508;2023-07-28T06:57:14;100764.75;;;18.68;100.00
49030;BME280;43337;52.070;4.508;2023-07-28T06:59:39;100767.91;;;18.62;100.00
49030;BME280;43337;52.070;4.508;2023-07-28T07:02:05;100770.34;;;18.65;100.00
49030;BME280;43337;52.070;4.508;2023-07-28T07:04:31;100757.00;;;18.53;100.00
49030;BME280;43337;52.070;4.508;2023-07-28T07:06:56;100743.03;;;18.50;100.00
49030;BME280;43337;52.070;4.508;2023-07-28T07:09:22;100777.03;;;18.70;100.00
49030;BME280;43337;52.070;4.508;2023-07-28T07:11:47;100769.88;;;18.71;100.00
49030;BME280;43337;52.070;4.508;2023-07-28T07:14:12;100782.63;;;18.78;100.00
49030;BME280;43337;52.070;4.508;2023-07-28T07:16:39;100774.75;;;18.77;100.00
49030;BME280;43337;52.070;4.508;2023-07-28T07:19:05;100785.06;;;18.82;100.00
49030;BME280;43337;52.070;4.508;2023-07-28T07:21:31;100790.41;;;18.93;100.00
49030;BME280;43337;52.070;4.508;2023-07-28T07:23:56;100754.72;;;18.71;100.00
49030;BME280;43337;52.070;4.508;2023-07-28T07:26:21;100747.25;;;18.76;100.00
49030;BME280;43337;52.070;4.508;2023-07-28T07:28:47;100792.84;;;19.07;100.00
49030;BME280;43337;52.070;4.508;2023-07-28T07:31:16;100791.50;;;19.13;100.00
49030;BME280;43337;52.070;4.508;2023-07-28T07:33:42;100792.25;;;19.15;100.00
49030;BME280;43337;52.070;4.508;2023-07-28T07:36:17;100779.25;;;19.21;100.00
49030;BME280;43337;52.070;4.508;2023-07-28T07:38:44;100783.13;;;19.28;100.00
49030;BME280;43337;52.070;4.508;2023-07-28T07:41:12;100765.56;;;19.26;100.00
49030;BME280;43337;52.070;4.508;2023-07-28T07:43:38;100765.28;;;19.29;100.00
49030;BME280;43337;52.070;4.508;2023-07-28T07:46:04;100795.25;;;19.44;100.00
49030;BME280;43337;52.070;4.508;2023-07-28T07:48:30;100783.84;;;19.42;100.00
49030;BME280;43337;52.070;4.508;2023-07-28T07:50:56;100797.19;;;19.53;100.00
49030;BME280;43337;52.070;4.508;2023-07-28T07:53:21;100763.81;;;19.36;100.00
49030;BME280;43337;52.070;4.508;2023-07-28T07:55:46;100778.38;;;19.43;100.00
49030;BME280;43337;52.070;4.508;2023-07-28T07:58:12;100784.09;;;19.50;100.00
49030;BME280;43337;52.070;4.508;2023-07-28T08:00:37;100797.78;;;19.68;100.00
49030;BME280;43337;52.070;4.508;2023-07-28T08:03:03;100785.88;;;19.61;100.00
49030;BME280;43337;52.070;4.508;2023-07-28T08:05:29;100809.44;;;19.78;100.00
49030;BME280;43337;52.070;4.508;2023-07-28T08:07:55;100798.97;;;19.75;100.00
49030;BME280;43337;52.070;4.508;2023-07-28T08:10:20;100814.03;;;19.87;100.00
49030;BME280;43337;52.070;4.508;2023-07-28T08:12:46;100822.91;;;19.88;100.00
49030;BME280;43337;52.070;4.508;2023-07-28T08:15:12;100827.00;;;19.92;100.00
49030;BME280;43337;52.070;4.508;2023-07-28T08:17:38;100783.22;;;19.72;100.00
49030;BME280;43337;52.070;4.508;2023-07-28T08:20:08;100779.44;;;19.74;100.00
49030;BME280;43337;52.070;4.508;2023-07-28T08:22:33;100783.91;;;19.85;100.00
49030;BME280;43337;52.070;4.508;2023-07-28T08:24:59;100808.63;;;19.98;100.00
49030;BME280;43337;52.070;4.508;2023-07-28T08:30:54;100812.47;;;20.17;100.00
49030;BME280;43337;52.070;4.508;2023-07-28T08:33:20;100797.16;;;20.19;100.00
49030;BME280;43337;52.070;4.508;2023-07-28T08:35:46;100807.91;;;20.29;100.00
49030;BME280;43337;52.070;4.508;2023-07-28T08:38:11;100817.13;;;20.36;100.00
49030;BME280;43337;52.070;4.508;2023-07-28T08:40:37;100780.25;;;20.18;100.00
49030;BME280;43337;52.070;4.508;2023-07-28T08:43:02;100803.50;;;20.39;100.00
49030;BME280;43337;52.070;4.508;2023-07-28T08:45:28;100803.34;;;20.40;100.00
49030;BME280;43337;52.070;4.508;2023-07-28T08:47:53;100807.00;;;20.39;100.00
49030;BME280;43337;52.070;4.508;2023-07-28T08:50:19;100819.84;;;20.57;100.00
49030;BME280;43337;52.070;4.508;2023-07-28T08:52:44;100798.97;;;20.51;100.00
49030;BME280;43337;52.070;4.508;2023-07-28T08:55:09;100808.75;;;20.61;100.00
49030;BME280;43337;52.070;4.508;2023-07-28T08:57:35;100823.91;;;20.72;100.00
49030;BME280;43337;52.070;4.508;2023-07-28T09:00:08;100815.53;;;20.65;100.00
49030;BME280;43337;52.070;4.508;2023-07-28T09:02:34;100789.63;;;20.45;100.00
49030;BME280;43337;52.070;4.508;2023-07-28T09:05:02;100801.84;;;20.59;100.00
49030;BME280;43337;52.070;4.508;2023-07-28T09:07:34;100816.13;;;20.69;100.00
49030;BME280;43337;52.070;4.508;2023-07-28T09:10:00;100837.59;;;20.79;100.00
49030;BME280;43337;52.070;4.508;2023-07-28T09:12:26;100832.63;;;20.74;100.00
49030;BME280;43337;52.070;4.508;2023-07-28T09:14:56;100839.22;;;20.70;100.00
49030;BME280;43337;52.070;4.508;2023-07-28T09:17:21;100814.16;;;20.50;100.00
49030;BME280;43337;52.070;4.508;2023-07-28T09:19:54;100828.13;;;20.54;100.00
49030;BME280;43337;52.070;4.508;2023-07-28T09:22:20;100834.72;;;20.50;100.00
49030;BME280;43337;52.070;4.508;2023-07-28T09:24:46;100841.75;;;20.51;100.00
49030;BME280;43337;52.070;4.508;2023-07-28T09:27:27;100840.44;;;20.45;100.00
49030;BME280;43337;52.070;4.508;2023-07-28T09:29:55;100840.78;;;20.40;100.00
49030;BME280;43337;52.070;4.508;2023-07-28T09:32:30;100852.63;;;20.38;100.00
49030;BME280;43337;52.070;4.508;2023-07-28T09:35:18;100844.09;;;20.33;100.00
49030;BME280;43337;52.070;4.508;2023-07-28T09:37:46;100833.22;;;20.24;100.00
49030;BME280;43337;52.070;4.508;2023-07-28T09:40:20;100854.94;;;20.31;100.00
49030;BME280;43337;52.070;4.508;2023-07-28T09:42:47;100856.25;;;20.37;100.00
49030;BME280;43337;52.070;4.508;2023-07-28T09:45:17;100859.78;;;20.37;100.00
49030;BME280;43337;52.070;4.508;2023-07-28T09:47:47;100856.38;;;20.35;100.00
49030;BME280;43337;52.070;4.508;2023-07-28T09:50:18;100862.81;;;20.33;100.00
49030;BME280;43337;52.070;4.508;2023-07-28T09:52:50;100854.81;;;20.33;100.00
49030;BME280;43337;52.070;4.508;2023-07-28T09:55:19;100849.97;;;20.27;100.00
49030;BME280;43337;52.070;4.508;2023-07-28T09:57:46;100866.72;;;20.29;100.00
49030;BME280;43337;52.070;4.508;2023-07-28T10:00:15;100867.84;;;20.26;100.00
49030;BME280;43337;52.070;4.508;2023-07-28T10:02:42;100840.66;;;20.10;100.00
49030;BME280;43337;52.070;4.508;2023-07-28T10:05:08;100852.56;;;20.17;100.00
49030;BME280;43337;52.070;4.508;2023-07-28T10:07:36;100853.41;;;20.17;100.00
49030;BME280;43337;52.070;4.508;2023-07-28T10:10:08;100856.94;;;20.18;100.00
49030;BME280;43337;52.070;4.508;2023-07-28T10:12:46;100861.69;;;20.14;100.00
49030;BME280;43337;52.070;4.508;2023-07-28T10:15:14;100864.69;;;20.21;100.00
49030;BME280;43337;52.070;4.508;2023-07-28T10:17:44;100865.28;;;20.24;100.00
49030;BME280;43337;52.070;4.508;2023-07-28T10:23:11;100861.78;;;20.24;100.00
49030;BME280;43337;52.070;4.508;2023-07-28T10:25:37;100868.06;;;20.34;100.00
49030;BME280;43337;52.070;4.508;2023-07-28T10:28:07;100847.78;;;20.32;100.00
49030;BME280;43337;52.070;4.508;2023-07-28T10:30:54;100869.69;;;20.58;100.00
49030;BME280;43337;52.070;4.508;2023-07-28T10:33:34;100863.09;;;20.62;100.00
49030;BME280;43337;52.070;4.508;2023-07-28T10:36:32;100880.19;;;20.70;100.00
49030;BME280;43337;52.070;4.508;2023-07-28T10:39:11;100873.63;;;20.75;100.00
49030;BME280;43337;52.070;4.508;2023-07-28T10:41:37;100876.75;;;20.80;100.00
49030;BME280;43337;52.070;4.508;2023-07-28T10:44:03;100821.09;;;20.53;100.00
49030;BME280;43337;52.070;4.508;2023-07-28T10:46:29;100876.72;;;20.91;100.00
49030;BME280;43337;52.070;4.508;2023-07-28T10:48:54;100870.56;;;21.00;100.00
49030;BME280;43337;52.070;4.508;2023-07-28T10:51:24;100864.53;;;21.08;100.00
49030;BME280;43337;52.070;4.508;2023-07-28T10:53:51;100871.34;;;21.21;100.00
49030;BME280;43337;52.070;4.508;2023-07-28T10:56:17;100847.94;;;21.14;100.00
49030;BME280;43337;52.070;4.508;2023-07-28T10:58:44;100881.50;;;21.39;100.00
49030;BME280;43337;52.070;4.508;2023-07-28T11:01:09;100857.31;;;21.29;100.00
49030;BME280;43337;52.070;4.508;2023-07-28T11:03:34;100873.78;;;21.45;100.00
49030;BME280;43337;52.070;4.508;2023-07-28T11:06:00;100851.59;;;21.34;100.00
49030;BME280;43337;52.070;4.508;2023-07-28T11:08:26;100855.31;;;21.52;100.00
49030;BME280;43337;52.070;4.508;2023-07-28T11:10:51;100891.19;;;21.61;100.00
49030;BME280;43337;52.070;4.508;2023-07-28T11:13:17;100874.13;;;21.62;100.00
49030;BME280;43337;52.070;4.508;2023-07-28T11:15:43;100884.44;;;21.66;100.00
49030;BME280;43337;52.070;4.508;2023-07-28T11:18:08;100878.66;;;21.71;100.00
49030;BME280;43337;52.070;4.508;2023-07-28T11:20:34;100852.09;;;21.58;100.00
49030;BME280;43337;52.070;4.508;2023-07-28T11:23:04;100883.22;;;21.80;100.00
49030;BME280;43337;52.070;4.508;2023-07-28T11:25:31;100885.75;;;21.82;100.00
49030;BME280;43337;52.070;4.508;2023-07-28T11:27:57;100871.75;;;21.78;100.00
49030;BME280;43337;52.070;4.508;2023-07-28T11:30:23;100861.47;;;21.74;100.00
49030;BME280;43337;52.070;4.508;2023-07-28T11:32:51;100884.47;;;21.86;100.00
49030;BME280;43337;52.070;4.508;2023-07-28T11:35:18;100875.59;;;21.76;100.00
49030;BME280;43337;52.070;4.508;2023-07-28T11:37:46;100891.38;;;21.79;100.00
49030;BME280;43337;52.070;4.508;2023-07-28T11:40:13;100884.75;;;21.73;100.00
49030;BME280;43337;52.070;4.508;2023-07-28T11:43:05;100896.41;;;21.62;100.00
49030;BME280;43337;52.070;4.508;2023-07-28T11:45:31;100897.50;;;21.60;100.00
49030;BME280;43337;52.070;4.508;2023-07-28T11:48:01;100875.38;;;21.58;100.00
49030;BME280;43337;52.070;4.508;2023-07-28T11:52:54;100896.50;;;21.91;100.00
49030;BME280;43337;52.070;4.508;2023-07-28T11:55:20;100871.09;;;21.86;100.00
49030;BME280;43337;52.070;4.508;2023-07-28T11:57:46;100895.97;;;22.07;100.00
49030;BME280;43337;52.070;4.508;2023-07-28T12:00:12;100874.06;;;21.92;100.00
49030;BME280;43337;52.070;4.508;2023-07-28T12:02:41;100898.19;;;22.02;100.00
49030;BME280;43337;52.070;4.508;2023-07-28T12:05:16;100894.97;;;21.99;100.00
49030;BME280;43337;52.070;4.508;2023-07-28T12:07:47;100883.06;;;21.82;100.00
49030;BME280;43337;52.070;4.508;2023-07-28T12:10:13;100887.72;;;21.80;100.00
49030;BME280;43337;52.070;4.508;2023-07-28T12:12:43;100896.19;;;21.85;100.00
49030;BME280;43337;52.070;4.508;2023-07-28T12:15:20;100898.72;;;21.86;100.00
49030;BME280;43337;52.070;4.508;2023-07-28T12:20:26;100898.09;;;22.04;100.00
49030;BME280;43337;52.070;4.508;2023-07-28T12:22:52;100915.09;;;22.14;100.00
49030;BME280;43337;52.070;4.508;2023-07-28T12:25:17;100909.88;;;22.22;100.00
49030;BME280;43337;52.070;4.508;2023-07-28T12:27:42;100865.63;;;22.07;100.00
49030;BME280;43337;52.070;4.508;2023-07-28T12:30:09;100919.59;;;22.33;100.00
49030;BME280;43337;52.070;4.508;2023-07-28T12:32:35;100915.13;;;22.33;100.00
49030;BME280;43337;52.070;4.508;2023-07-28T12:35:01;100901.56;;;22.35;100.00
49030;BME280;43337;52.070;4.508;2023-07-28T12:37:26;100901.69;;;22.33;100.00
49030;BME280;43337;52.070;4.508;2023-07-28T12:39:52;100909.75;;;22.33;100.00
49030;BME280;43337;52.070;4.508;2023-07-28T12:42:17;100889.53;;;22.20;100.00
49030;BME280;43337;52.070;4.508;2023-07-28T12:44:42;100915.66;;;22.37;100.00
49030;BME280;43337;52.070;4.508;2023-07-28T12:47:08;100915.09;;;22.43;100.00
49030;BME280;43337;52.070;4.508;2023-07-28T12:49:34;100923.00;;;22.45;100.00
49030;BME280;43337;52.070;4.508;2023-07-28T12:52:01;100862.38;;;22.13;100.00
49030;BME280;43337;52.070;4.508;2023-07-28T12:54:27;100908.91;;;22.42;100.00
49030;BME280;43337;52.070;4.508;2023-07-28T12:56:56;100903.09;;;22.47;100.00
49030;BME280;43337;52.070;4.508;2023-07-28T12:59:21;100882.63;;;22.36;100.00
49030;BME280;43337;52.070;4.508;2023-07-28T13:01:47;100882.50;;;22.38;100.00